sensor_id;sensor_type;location;lat;lon;timestamp;P1;durP1;ratioP1;P2;durP2;ratioP2
66093;SDS011;52876;49.394;10.892;2022-10-22T00:01:23;9.40;;;6.70;;
66093;SDS011;52876;49.394;10.892;2022-10-22T00:03:49;8.87;;;6.67;;
66093;SDS011;52876;49.394;10.892;2022-10-22T00:06:17;8.03;;;7.10;;
66093;SDS011;52876;49.394;10.892;2022-10-22T00:08:43;7.50;;;5.93;;
66093;SDS011;52876;49.394;10.892;2022-10-22T00:11:11;7.80;;;6.67;;
66093;SDS011;52876;49.394;10.892;2022-10-22T00:13:39;8.40;;;6.60;;
66093;SDS011;52876;49.394;10.892;2022-10-22T00:16:05;10.50;;;6.87;;
66093;SDS011;52876;49.394;10.892;2022-10-22T00:18:33;7.60;;;6.80;;
66093;SDS011;52876;49.394;10.892;2022-10-22T00:21:00;8.10;;;7.30;;
66093;SDS011;52876;49.394;10.892;2022-10-22T00:23:26;7.33;;;6.63;;
66093;SDS011;52876;49.394;10.892;2022-10-22T00:25:54;7.90;;;7.10;;
66093;SDS011;52876;49.394;10.892;2022-10-22T00:28:20;10.70;;;7.73;;
66093;SDS011;52876;49.394;10.892;2022-10-22T00:30:46;11.97;;;8.90;;
66093;SDS011;52876;49.394;10.892;2022-10-22T00:33:12;13.13;;;9.00;;
66093;SDS011;52876;49.394;10.892;2022-10-22T00:35:39;10.30;;;8.50;;
66093;SDS011;52876;49.394;10.892;2022-10-22T00:38:05;11.53;;;9.37;;
66093;SDS011;52876;49.394;10.892;2022-10-22T00:40:31;10.63;;;8.17;;
66093;SDS011;52876;49.394;10.892;2022-10-22T00:42:57;12.67;;;10.17;;
66093;SDS011;52876;49.394;10.892;2022-10-22T00:45:23;9.60;;;8.53;;
66093;SDS011;52876;49.394;10.892;2022-10-22T00:47:51;9.50;;;8.03;;
66093;SDS011;52876;49.394;10.892;2022-10-22T00:50:22;9.30;;;8.40;;
66093;SDS011;52876;49.394;10.892;2022-10-22T00:55:21;7.57;;;6.70;;
66093;SDS011;52876;49.394;10.892;2022-10-22T00:57:48;10.40;;;7.63;;
66093;SDS011;52876;49.394;10.892;2022-10-22T01:00:15;8.63;;;6.20;;
66093;SDS011;52876;49.394;10.892;2022-10-22T01:02:43;6.60;;;5.63;;
66093;SDS011;52876;49.394;10.892;2022-10-22T01:05:09;5.20;;;4.60;;
66093;SDS011;52876;49.394;10.892;2022-10-22T01:07:38;3.80;;;3.50;;
66093;SDS011;52876;49.394;10.892;2022-10-22T01:10:07;7.57;;;4.47;;
66093;SDS011;52876;49.394;10.892;2022-10-22T01:12:48;4.40;;;3.70;;
66093;SDS011;52876;49.394;10.892;2022-10-22T01:15:18;6.23;;;3.80;;
66093;SDS011;52876;49.394;10.892;2022-10-22T01:17:51;5.30;;;3.63;;
66093;SDS011;52876;49.394;10.892;2022-10-22T01:20:30;4.27;;;4.07;;
66093;SDS011;52876;49.394;10.892;2022-10-22T01:23:12;2.90;;;2.70;;
66093;SDS011;52876;49.394;10.892;2022-10-22T01:25:53;2.53;;;2.07;;
66093;SDS011;52876;49.394;10.892;2022-10-22T01:31:03;2.87;;;2.30;;
66093;SDS011;52876;49.394;10.892;2022-10-22T01:33:31;3.17;;;1.90;;
66093;SDS011;52876;49.394;10.892;2022-10-22T01:35:58;3.50;;;1.80;;
66093;SDS011;52876;49.394;10.892;2022-10-22T01:38:24;1.70;;;1.60;;
66093;SDS011;52876;49.394;10.892;2022-10-22T01:40:52;4.80;;;1.40;;
66093;SDS011;52876;49.394;10.892;2022-10-22T01:43:19;1.90;;;1.70;;
66093;SDS011;52876;49.394;10.892;2022-10-22T01:45:49;1.70;;;1.43;;
66093;SDS011;52876;49.394;10.892;2022-10-22T01:48:22;3.90;;;1.53;;
66093;SDS011;52876;49.394;10.892;2022-10-22T01:51:06;1.60;;;1.50;;
66093;SDS011;52876;49.394;10.892;2022-10-22T01:53:52;7.23;;;2.37;;
66093;SDS011;52876;49.394;10.892;2022-10-22T01:56:29;1.73;;;1.63;;
66093;SDS011;52876;49.394;10.892;2022-10-22T01:59:02;2.60;;;1.70;;
66093;SDS011;52876;49.394;10.892;2022-10-22T02:01:33;1.87;;;1.40;;
66093;SDS011;52876;49.394;10.892;2022-10-22T02:04:06;1.97;;;1.40;;
66093;SDS011;52876;49.394;10.892;2022-10-22T02:06:37;3.73;;;1.80;;
66093;SDS011;52876;49.394;10.892;2022-10-22T02:09:07;1.87;;;1.33;;
66093;SDS011;52876;49.394;10.892;2022-10-22T02:11:35;1.87;;;1.03;;
66093;SDS011;52876;49.394;10.892;2022-10-22T02:14:02;2.30;;;1.23;;
66093;SDS011;52876;49.394;10.892;2022-10-22T02:16:31;3.77;;;1.33;;
66093;SDS011;52876;49.394;10.892;2022-10-22T02:19:02;1.63;;;1.53;;
66093;SDS011;52876;49.394;10.892;2022-10-22T02:21:33;1.80;;;1.30;;
66093;SDS011;52876;49.394;10.892;2022-10-22T02:24:00;2.07;;;1.53;;
66093;SDS011;52876;49.394;10.892;2022-10-22T02:26:27;1.67;;;1.40;;
66093;SDS011;52876;49.394;10.892;2022-10-22T02:29:00;1.80;;;1.27;;
66093;SDS011;52876;49.394;10.892;2022-10-22T02:31:31;3.37;;;1.87;;
66093;SDS011;52876;49.394;10.892;2022-10-22T02:34:02;2.80;;;2.50;;
66093;SDS011;52876;49.394;10.892;2022-10-22T02:36:33;2.60;;;1.57;;
66093;SDS011;52876;49.394;10.892;2022-10-22T02:38:59;1.67;;;1.30;;
66093;SDS011;52876;49.394;10.892;2022-10-22T02:41:27;1.73;;;1.50;;
66093;SDS011;52876;49.394;10.892;2022-10-22T02:43:54;1.63;;;1.33;;
66093;SDS011;52876;49.394;10.892;2022-10-22T02:46:21;2.03;;;1.50;;
66093;SDS011;52876;49.394;10.892;2022-10-22T02:48:49;2.23;;;1.60;;
66093;SDS011;52876;49.394;10.892;2022-10-22T02:51:15;2.30;;;1.60;;
66093;SDS011;52876;49.394;10.892;2022-10-22T02:53:41;2.33;;;1.70;;
66093;SDS011;52876;49.394;10.892;2022-10-22T02:56:08;1.97;;;1.60;;
66093;SDS011;52876;49.394;10.892;2022-10-22T02:58:34;2.50;;;1.67;;
66093;SDS011;52876;49.394;10.892;2022-10-22T03:01:00;2.90;;;2.10;;
66093;SDS011;52876;49.394;10.892;2022-10-22T03:03:26;3.83;;;1.70;;
66093;SDS011;52876;49.394;10.892;2022-10-22T03:05:53;2.17;;;1.67;;
66093;SDS011;52876;49.394;10.892;2022-10-22T03:08:19;7.23;;;2.33;;
66093;SDS011;52876;49.394;10.892;2022-10-22T03:10:45;2.20;;;2.00;;
66093;SDS011;52876;49.394;10.892;2022-10-22T03:13:11;1.87;;;1.50;;
66093;SDS011;52876;49.394;10.892;2022-10-22T03:15:39;1.50;;;1.40;;
66093;SDS011;52876;49.394;10.892;2022-10-22T03:18:05;2.53;;;1.53;;
66093;SDS011;52876;49.394;10.892;2022-10-22T03:20:31;2.90;;;1.50;;
66093;SDS011;52876;49.394;10.892;2022-10-22T03:22:59;3.30;;;1.40;;
66093;SDS011;52876;49.394;10.892;2022-10-22T03:25:25;3.30;;;1.90;;
66093;SDS011;52876;49.394;10.892;2022-10-22T03:27:52;1.80;;;1.70;;
66093;SDS011;52876;49.394;10.892;2022-10-22T03:30:21;3.37;;;1.83;;
66093;SDS011;52876;49.394;10.892;2022-10-22T03:32:48;2.23;;;1.80;;
66093;SDS011;52876;49.394;10.892;2022-10-22T03:35:15;2.03;;;1.93;;
66093;SDS011;52876;49.394;10.892;2022-10-22T03:37:42;2.03;;;1.80;;
66093;SDS011;52876;49.394;10.892;2022-10-22T03:40:10;1.80;;;1.70;;
66093;SDS011;52876;49.394;10.892;2022-10-22T03:42:39;3.87;;;1.80;;
66093;SDS011;52876;49.394;10.892;2022-10-22T03:45:05;3.87;;;1.90;;
66093;SDS011;52876;49.394;10.892;2022-10-22T03:47:33;2.70;;;1.50;;
66093;SDS011;52876;49.394;10.892;2022-10-22T03:49:59;1.60;;;1.50;;
66093;SDS011;52876;49.394;10.892;2022-10-22T03:52:27;1.70;;;1.60;;
66093;SDS011;52876;49.394;10.892;2022-10-22T03:54:53;3.30;;;1.73;;
66093;SDS011;52876;49.394;10.892;2022-10-22T03:57:20;2.40;;;2.03;;
66093;SDS011;52876;49.394;10.892;2022-10-22T03:59:46;4.40;;;1.63;;
66093;SDS011;52876;49.394;10.892;2022-10-22T04:02:12;1.60;;;1.50;;
66093;SDS011;52876;49.394;10.892;2022-10-22T04:04:38;2.40;;;1.80;;
66093;SDS011;52876;49.394;10.892;2022-10-22T04:07:05;1.60;;;1.50;;
66093;SDS011;52876;49.394;10.892;2022-10-22T04:09:31;2.23;;;1.90;;
66093;SDS011;52876;49.394;10.892;2022-10-22T04:11:57;2.23;;;1.50;;
66093;SDS011;52876;49.394;10.892;2022-10-22T04:14:24;1.80;;;1.70;;
66093;SDS011;52876;49.394;10.892;2022-10-22T04:16:52;1.73;;;1.63;;
66093;SDS011;52876;49.394;10.892;2022-10-22T04:19:18;2.53;;;2.00;;
66093;SDS011;52876;49.394;10.892;2022-10-22T04:21:44;2.17;;;1.83;;
66093;SDS011;52876;49.394;10.892;2022-10-22T04:24:10;2.20;;;1.80;;
66093;SDS011;52876;49.394;10.892;2022-10-22T04:26:36;1.90;;;1.80;;
66093;SDS011;52876;49.394;10.892;2022-10-22T04:29:02;2.57;;;1.97;;
66093;SDS011;52876;49.394;10.892;2022-10-22T04:31:29;2.63;;;1.80;;
66093;SDS011;52876;49.394;10.892;2022-10-22T04:33:56;2.20;;;2.10;;
66093;SDS011;52876;49.394;10.892;2022-10-22T04:36:24;2.37;;;2.27;;
66093;SDS011;52876;49.394;10.892;2022-10-22T04:38:51;2.40;;;1.77;;
66093;SDS011;52876;49.394;10.892;2022-10-22T04:41:19;2.13;;;1.67;;
66093;SDS011;52876;49.394;10.892;2022-10-22T04:43:46;2.40;;;1.87;;
66093;SDS011;52876;49.394;10.892;2022-10-22T04:46:13;2.90;;;1.73;;
66093;SDS011;52876;49.394;10.892;2022-10-22T04:48:41;2.07;;;1.50;;
66093;SDS011;52876;49.394;10.892;2022-10-22T04:51:11;1.80;;;1.67;;
66093;SDS011;52876;49.394;10.892;2022-10-22T04:53:38;1.80;;;1.70;;
66093;SDS011;52876;49.394;10.892;2022-10-22T04:56:07;2.73;;;1.93;;
66093;SDS011;52876;49.394;10.892;2022-10-22T04:58:34;2.63;;;1.70;;
66093;SDS011;52876;49.394;10.892;2022-10-22T05:01:07;2.67;;;1.77;;
66093;SDS011;52876;49.394;10.892;2022-10-22T05:03:34;2.10;;;1.90;;
66093;SDS011;52876;49.394;10.892;2022-10-22T05:06:03;2.53;;;1.93;;
66093;SDS011;52876;49.394;10.892;2022-10-22T05:08:29;2.37;;;1.60;;
66093;SDS011;52876;49.394;10.892;2022-10-22T05:10:57;1.50;;;1.40;;
66093;SDS011;52876;49.394;10.892;2022-10-22T05:13:23;1.73;;;1.40;;
66093;SDS011;52876;49.394;10.892;2022-10-22T05:15:49;2.13;;;1.93;;
66093;SDS011;52876;49.394;10.892;2022-10-22T05:18:15;1.60;;;1.50;;
66093;SDS011;52876;49.394;10.892;2022-10-22T05:20:42;4.77;;;2.50;;
66093;SDS011;52876;49.394;10.892;2022-10-22T05:23:10;1.97;;;1.70;;
66093;SDS011;52876;49.394;10.892;2022-10-22T05:25:37;2.13;;;1.93;;
66093;SDS011;52876;49.394;10.892;2022-10-22T05:28:03;2.83;;;2.13;;
66093;SDS011;52876;49.394;10.892;2022-10-22T05:30:29;1.83;;;1.73;;
66093;SDS011;52876;49.394;10.892;2022-10-22T05:32:55;3.37;;;1.87;;
66093;SDS011;52876;49.394;10.892;2022-10-22T05:35:21;2.00;;;1.90;;
66093;SDS011;52876;49.394;10.892;2022-10-22T05:37:49;2.67;;;2.00;;
66093;SDS011;52876;49.394;10.892;2022-10-22T05:40:16;2.43;;;1.70;;
66093;SDS011;52876;49.394;10.892;2022-10-22T05:42:43;2.63;;;1.77;;
66093;SDS011;52876;49.394;10.892;2022-10-22T05:45:09;2.00;;;1.90;;
66093;SDS011;52876;49.394;10.892;2022-10-22T05:47:37;2.90;;;2.30;;
66093;SDS011;52876;49.394;10.892;2022-10-22T05:50:03;2.60;;;2.40;;
66093;SDS011;52876;49.394;10.892;2022-10-22T05:52:31;2.37;;;2.17;;
66093;SDS011;52876;49.394;10.892;2022-10-22T05:54:57;9.10;;;8.30;;
66093;SDS011;52876;49.394;10.892;2022-10-22T05:57:24;6.40;;;2.80;;
66093;SDS011;52876;49.394;10.892;2022-10-22T05:59:50;9.83;;;9.00;;
66093;SDS011;52876;49.394;10.892;2022-10-22T06:02:16;3.17;;;2.87;;
66093;SDS011;52876;49.394;10.892;2022-10-22T06:04:42;3.67;;;2.40;;
66093;SDS011;52876;49.394;10.892;2022-10-22T06:07:08;2.33;;;2.13;;
66093;SDS011;52876;49.394;10.892;2022-10-22T06:09:38;2.83;;;2.63;;
66093;SDS011;52876;49.394;10.892;2022-10-22T06:12:04;4.37;;;2.87;;
66093;SDS011;52876;49.394;10.892;2022-10-22T06:14:31;2.80;;;2.60;;
66093;SDS011;52876;49.394;10.892;2022-10-22T06:16:59;3.20;;;2.50;;
66093;SDS011;52876;49.394;10.892;2022-10-22T06:19:25;2.10;;;2.00;;
66093;SDS011;52876;49.394;10.892;2022-10-22T06:21:52;3.63;;;1.93;;
66093;SDS011;52876;49.394;10.892;2022-10-22T06:24:18;2.37;;;1.83;;
66093;SDS011;52876;49.394;10.892;2022-10-22T06:26:48;1.73;;;1.63;;
66093;SDS011;52876;49.394;10.892;2022-10-22T06:29:14;1.70;;;1.60;;
66093;SDS011;52876;49.394;10.892;2022-10-22T06:31:43;2.67;;;1.73;;
66093;SDS011;52876;49.394;10.892;2022-10-22T06:34:10;1.50;;;1.40;;
66093;SDS011;52876;49.394;10.892;2022-10-22T06:36:38;2.67;;;2.43;;
66093;SDS011;52876;49.394;10.892;2022-10-22T06:39:04;11.00;;;7.60;;
66093;SDS011;52876;49.394;10.892;2022-10-22T06:41:30;7.07;;;4.83;;
66093;SDS011;52876;49.394;10.892;2022-10-22T06:43:56;6.43;;;2.90;;
66093;SDS011;52876;49.394;10.892;2022-10-22T06:46:24;5.93;;;5.40;;
66093;SDS011;52876;49.394;10.892;2022-10-22T06:48:52;4.00;;;3.70;;
66093;SDS011;52876;49.394;10.892;2022-10-22T06:51:20;2.53;;;2.23;;
66093;SDS011;52876;49.394;10.892;2022-10-22T06:53:46;3.67;;;2.30;;
66093;SDS011;52876;49.394;10.892;2022-10-22T06:56:13;2.90;;;2.70;;
66093;SDS011;52876;49.394;10.892;2022-10-22T06:58:40;2.43;;;1.70;;
66093;SDS011;52876;49.394;10.892;2022-10-22T07:01:08;2.57;;;1.63;;
66093;SDS011;52876;49.394;10.892;2022-10-22T07:03:35;1.53;;;1.43;;
66093;SDS011;52876;49.394;10.892;2022-10-22T07:06:05;2.53;;;1.60;;
66093;SDS011;52876;49.394;10.892;2022-10-22T07:08:33;5.90;;;4.70;;
66093;SDS011;52876;49.394;10.892;2022-10-22T07:11:03;2.13;;;2.03;;
66093;SDS011;52876;49.394;10.892;2022-10-22T07:13:30;1.50;;;1.40;;
66093;SDS011;52876;49.394;10.892;2022-10-22T07:15:58;3.57;;;1.73;;
66093;SDS011;52876;49.394;10.892;2022-10-22T07:18:24;2.60;;;1.50;;
66093;SDS011;52876;49.394;10.892;2022-10-22T07:20:51;1.60;;;1.50;;
66093;SDS011;52876;49.394;10.892;2022-10-22T07:23:18;1.33;;;1.23;;
66093;SDS011;52876;49.394;10.892;2022-10-22T07:25:46;3.30;;;1.67;;
66093;SDS011;52876;49.394;10.892;2022-10-22T07:28:12;2.23;;;1.40;;
66093;SDS011;52876;49.394;10.892;2022-10-22T07:30:39;3.27;;;1.67;;
66093;SDS011;52876;49.394;10.892;2022-10-22T07:33:05;5.50;;;1.77;;
66093;SDS011;52876;49.394;10.892;2022-10-22T07:35:32;4.23;;;2.60;;
66093;SDS011;52876;49.394;10.892;2022-10-22T07:37:58;1.90;;;1.80;;
66093;SDS011;52876;49.394;10.892;2022-10-22T07:40:27;1.77;;;1.30;;
66093;SDS011;52876;49.394;10.892;2022-10-22T07:42:53;2.63;;;2.20;;
66093;SDS011;52876;49.394;10.892;2022-10-22T07:45:19;2.90;;;2.70;;
66093;SDS011;52876;49.394;10.892;2022-10-22T07:47:46;1.93;;;1.70;;
66093;SDS011;52876;49.394;10.892;2022-10-22T07:50:13;3.23;;;2.93;;
66093;SDS011;52876;49.394;10.892;2022-10-22T07:52:40;1.90;;;1.70;;
66093;SDS011;52876;49.394;10.892;2022-10-22T07:55:06;1.80;;;1.40;;
66093;SDS011;52876;49.394;10.892;2022-10-22T07:57:35;1.73;;;1.10;;
66093;SDS011;52876;49.394;10.892;2022-10-22T08:00:02;1.73;;;1.30;;
66093;SDS011;52876;49.394;10.892;2022-10-22T08:02:30;1.53;;;1.30;;
66093;SDS011;52876;49.394;10.892;2022-10-22T08:04:56;3.10;;;1.30;;
66093;SDS011;52876;49.394;10.892;2022-10-22T08:07:22;1.93;;;1.17;;
66093;SDS011;52876;49.394;10.892;2022-10-22T08:09:48;2.67;;;1.90;;
66093;SDS011;52876;49.394;10.892;2022-10-22T08:12:14;1.20;;;1.00;;
66093;SDS011;52876;49.394;10.892;2022-10-22T08:14:42;1.20;;;1.10;;
66093;SDS011;52876;49.394;10.892;2022-10-22T08:17:10;2.20;;;1.20;;
66093;SDS011;52876;49.394;10.892;2022-10-22T08:19:36;1.53;;;1.10;;
66093;SDS011;52876;49.394;10.892;2022-10-22T08:22:04;3.10;;;1.30;;
66093;SDS011;52876;49.394;10.892;2022-10-22T08:24:30;1.23;;;1.00;;
66093;SDS011;52876;49.394;10.892;2022-10-22T08:26:57;1.37;;;1.27;;
66093;SDS011;52876;49.394;10.892;2022-10-22T08:29:24;1.23;;;1.00;;
66093;SDS011;52876;49.394;10.892;2022-10-22T08:31:53;1.20;;;1.10;;
66093;SDS011;52876;49.394;10.892;2022-10-22T08:34:19;2.60;;;1.00;;
66093;SDS011;52876;49.394;10.892;2022-10-22T08:36:45;4.30;;;0.93;;
66093;SDS011;52876;49.394;10.892;2022-10-22T08:39:12;2.23;;;0.80;;
66093;SDS011;52876;49.394;10.892;2022-10-22T08:41:40;1.53;;;1.10;;
66093;SDS011;52876;49.394;10.892;2022-10-22T08:44:21;1.60;;;1.50;;
66093;SDS011;52876;49.394;10.892;2022-10-22T08:47:15;1.20;;;0.83;;
66093;SDS011;52876;49.394;10.892;2022-10-22T08:49:51;1.50;;;0.90;;
66093;SDS011;52876;49.394;10.892;2022-10-22T08:52:18;1.10;;;0.80;;
66093;SDS011;52876;49.394;10.892;2022-10-22T08:54:47;2.17;;;0.90;;
66093;SDS011;52876;49.394;10.892;2022-10-22T08:57:30;0.93;;;0.80;;
66093;SDS011;52876;49.394;10.892;2022-10-22T09:00:13;2.47;;;0.90;;
66093;SDS011;52876;49.394;10.892;2022-10-22T09:02:47;1.73;;;0.90;;
66093;SDS011;52876;49.394;10.892;2022-10-22T09:05:19;1.00;;;0.80;;
66093;SDS011;52876;49.394;10.892;2022-10-22T09:07:53;1.63;;;0.80;;
66093;SDS011;52876;49.394;10.892;2022-10-22T09:10:21;1.17;;;0.83;;
66093;SDS011;52876;49.394;10.892;2022-10-22T09:12:50;1.50;;;0.90;;
66093;SDS011;52876;49.394;10.892;2022-10-22T09:15:17;3.10;;;1.67;;
66093;SDS011;52876;49.394;10.892;2022-10-22T09:17:51;2.33;;;0.87;;
66093;SDS011;52876;49.394;10.892;2022-10-22T09:20:27;2.90;;;1.10;;
66093;SDS011;52876;49.394;10.892;2022-10-22T09:23:01;4.17;;;1.10;;
66093;SDS011;52876;49.394;10.892;2022-10-22T09:25:41;5.37;;;3.13;;
66093;SDS011;52876;49.394;10.892;2022-10-22T09:28:08;2.50;;;1.60;;
66093;SDS011;52876;49.394;10.892;2022-10-22T09:30:36;1.00;;;0.83;;
66093;SDS011;52876;49.394;10.892;2022-10-22T09:33:10;3.93;;;1.53;;
66093;SDS011;52876;49.394;10.892;2022-10-22T09:35:43;1.30;;;0.80;;
66093;SDS011;52876;49.394;10.892;2022-10-22T09:38:10;1.60;;;1.10;;
66093;SDS011;52876;49.394;10.892;2022-10-22T09:40:43;1.10;;;1.00;;
66093;SDS011;52876;49.394;10.892;2022-10-22T09:43:12;1.07;;;0.97;;
66093;SDS011;52876;49.394;10.892;2022-10-22T09:45:40;5.53;;;1.30;;
66093;SDS011;52876;49.394;10.892;2022-10-22T09:48:13;4.90;;;1.60;;
66093;SDS011;52876;49.394;10.892;2022-10-22T09:50:46;1.53;;;1.43;;
66093;SDS011;52876;49.394;10.892;2022-10-22T09:53:20;1.87;;;0.90;;
66093;SDS011;52876;49.394;10.892;2022-10-22T09:55:50;2.93;;;1.60;;
66093;SDS011;52876;49.394;10.892;2022-10-22T09:58:18;3.70;;;1.37;;
66093;SDS011;52876;49.394;10.892;2022-10-22T10:00:45;1.30;;;1.20;;
66093;SDS011;52876;49.394;10.892;2022-10-22T10:03:21;5.43;;;0.90;;
66093;SDS011;52876;49.394;10.892;2022-10-22T10:05:48;2.50;;;1.30;;
66093;SDS011;52876;49.394;10.892;2022-10-22T10:08:16;3.20;;;1.50;;
66093;SDS011;52876;49.394;10.892;2022-10-22T10:10:44;4.00;;;1.00;;
66093;SDS011;52876;49.394;10.892;2022-10-22T10:13:18;1.33;;;1.10;;
66093;SDS011;52876;49.394;10.892;2022-10-22T10:16:06;0.90;;;0.80;;
66093;SDS011;52876;49.394;10.892;2022-10-22T10:18:41;3.00;;;1.20;;
66093;SDS011;52876;49.394;10.892;2022-10-22T10:21:25;3.03;;;0.90;;
66093;SDS011;52876;49.394;10.892;2022-10-22T10:24:00;1.67;;;0.80;;
66093;SDS011;52876;49.394;10.892;2022-10-22T10:26:34;1.77;;;1.00;;
66093;SDS011;52876;49.394;10.892;2022-10-22T10:29:11;3.43;;;1.00;;
66093;SDS011;52876;49.394;10.892;2022-10-22T10:31:49;1.20;;;0.90;;
66093;SDS011;52876;49.394;10.892;2022-10-22T10:34:32;2.07;;;0.90;;
66093;SDS011;52876;49.394;10.892;2022-10-22T10:37:10;4.53;;;1.20;;
66093;SDS011;52876;49.394;10.892;2022-10-22T10:39:44;2.03;;;1.00;;
66093;SDS011;52876;49.394;10.892;2022-10-22T10:42:29;1.30;;;1.00;;
66093;SDS011;52876;49.394;10.892;2022-10-22T10:45:09;1.67;;;1.00;;
66093;SDS011;52876;49.394;10.892;2022-10-22T10:47:48;2.10;;;1.00;;
66093;SDS011;52876;49.394;10.892;2022-10-22T10:50:33;1.10;;;0.80;;
66093;SDS011;52876;49.394;10.892;2022-10-22T10:53:09;1.63;;;0.90;;
66093;SDS011;52876;49.394;10.892;2022-10-22T10:55:45;2.63;;;1.00;;
66093;SDS011;52876;49.394;10.892;2022-10-22T10:58:24;2.90;;;1.03;;
66093;SDS011;52876;49.394;10.892;2022-10-22T11:00:55;2.23;;;1.33;;
66093;SDS011;52876;49.394;10.892;2022-10-22T11:03:32;3.13;;;1.00;;
66093;SDS011;52876;49.394;10.892;2022-10-22T11:06:07;1.43;;;0.90;;
66093;SDS011;52876;49.394;10.892;2022-10-22T11:08:36;1.70;;;0.90;;
66093;SDS011;52876;49.394;10.892;2022-10-22T11:11:05;1.00;;;0.90;;
66093;SDS011;52876;49.394;10.892;2022-10-22T11:13:35;3.10;;;1.10;;
66093;SDS011;52876;49.394;10.892;2022-10-22T11:16:06;1.50;;;0.90;;
66093;SDS011;52876;49.394;10.892;2022-10-22T11:18:36;1.10;;;0.87;;
66093;SDS011;52876;49.394;10.892;2022-10-22T11:21:15;2.40;;;0.93;;
66093;SDS011;52876;49.394;10.892;2022-10-22T11:23:44;1.77;;;1.10;;
66093;SDS011;52876;49.394;10.892;2022-10-22T11:26:18;2.33;;;0.90;;
66093;SDS011;52876;49.394;10.892;2022-10-22T11:28:51;2.50;;;1.00;;
66093;SDS011;52876;49.394;10.892;2022-10-22T11:31:19;1.00;;;0.90;;
66093;SDS011;52876;49.394;10.892;2022-10-22T11:33:50;2.60;;;0.90;;
66093;SDS011;52876;49.394;10.892;2022-10-22T11:36:20;3.40;;;1.00;;
66093;SDS011;52876;49.394;10.892;2022-10-22T11:38:47;1.53;;;1.00;;
66093;SDS011;52876;49.394;10.892;2022-10-22T11:41:16;1.57;;;1.43;;
66093;SDS011;52876;49.394;10.892;2022-10-22T11:44:04;1.10;;;0.80;;
66093;SDS011;52876;49.394;10.892;2022-10-22T11:46:43;86.70;;;29.07;;
66093;SDS011;52876;49.394;10.892;2022-10-22T11:49:17;34.50;;;10.60;;
66093;SDS011;52876;49.394;10.892;2022-10-22T11:51:46;53.87;;;15.90;;
66093;SDS011;52876;49.394;10.892;2022-10-22T11:56:56;70.20;;;19.00;;
66093;SDS011;52876;49.394;10.892;2022-10-22T11:59:37;49.90;;;13.37;;
66093;SDS011;52876;49.394;10.892;2022-10-22T12:04:46;25.40;;;7.50;;
66093;SDS011;52876;49.394;10.892;2022-10-22T12:07:29;45.10;;;12.83;;
66093;SDS011;52876;49.394;10.892;2022-10-22T12:09:56;41.73;;;12.10;;
66093;SDS011;52876;49.394;10.892;2022-10-22T12:12:24;30.47;;;10.77;;
66093;SDS011;52876;49.394;10.892;2022-10-22T12:14:50;2.70;;;0.93;;
66093;SDS011;52876;49.394;10.892;2022-10-22T12:17:19;1.97;;;0.70;;
66093;SDS011;52876;49.394;10.892;2022-10-22T12:19:47;1.73;;;1.00;;
66093;SDS011;52876;49.394;10.892;2022-10-22T12:22:17;1.47;;;0.80;;
66093;SDS011;52876;49.394;10.892;2022-10-22T12:24:47;2.37;;;0.83;;
66093;SDS011;52876;49.394;10.892;2022-10-22T12:27:17;4.50;;;1.10;;
66093;SDS011;52876;49.394;10.892;2022-10-22T12:29:44;1.30;;;1.00;;
66093;SDS011;52876;49.394;10.892;2022-10-22T12:32:13;1.77;;;0.90;;
66093;SDS011;52876;49.394;10.892;2022-10-22T12:34:44;1.60;;;0.90;;
66093;SDS011;52876;49.394;10.892;2022-10-22T12:37:12;3.60;;;0.80;;
66093;SDS011;52876;49.394;10.892;2022-10-22T12:39:38;1.10;;;0.70;;
66093;SDS011;52876;49.394;10.892;2022-10-22T12:42:09;1.10;;;0.70;;
66093;SDS011;52876;49.394;10.892;2022-10-22T12:44:37;2.47;;;0.80;;
66093;SDS011;52876;49.394;10.892;2022-10-22T12:47:04;1.00;;;0.70;;
66093;SDS011;52876;49.394;10.892;2022-10-22T12:49:32;1.47;;;0.80;;
66093;SDS011;52876;49.394;10.892;2022-10-22T12:52:00;4.00;;;0.73;;
66093;SDS011;52876;49.394;10.892;2022-10-22T12:54:29;6.07;;;1.10;;
66093;SDS011;52876;49.394;10.892;2022-10-22T12:56:57;1.03;;;0.70;;
66093;SDS011;52876;49.394;10.892;2022-10-22T12:59:25;4.00;;;0.73;;
66093;SDS011;52876;49.394;10.892;2022-10-22T13:01:53;2.57;;;1.10;;
66093;SDS011;52876;49.394;10.892;2022-10-22T13:04:22;1.10;;;0.80;;
66093;SDS011;52876;49.394;10.892;2022-10-22T13:07:12;2.80;;;0.90;;
66093;SDS011;52876;49.394;10.892;2022-10-22T13:09:42;1.30;;;0.90;;
66093;SDS011;52876;49.394;10.892;2022-10-22T13:12:13;3.00;;;0.83;;
66093;SDS011;52876;49.394;10.892;2022-10-22T13:14:41;1.17;;;0.80;;
66093;SDS011;52876;49.394;10.892;2022-10-22T13:17:10;2.80;;;0.90;;
66093;SDS011;52876;49.394;10.892;2022-10-22T13:19:39;1.10;;;0.80;;
66093;SDS011;52876;49.394;10.892;2022-10-22T13:22:22;1.33;;;0.80;;
66093;SDS011;52876;49.394;10.892;2022-10-22T13:24:49;1.47;;;1.00;;
66093;SDS011;52876;49.394;10.892;2022-10-22T13:27:15;1.50;;;1.00;;
66093;SDS011;52876;49.394;10.892;2022-10-22T13:29:43;2.33;;;0.90;;
66093;SDS011;52876;49.394;10.892;2022-10-22T13:32:16;2.27;;;0.80;;
66093;SDS011;52876;49.394;10.892;2022-10-22T13:34:51;1.10;;;0.80;;
66093;SDS011;52876;49.394;10.892;2022-10-22T13:37:19;1.50;;;0.90;;
66093;SDS011;52876;49.394;10.892;2022-10-22T13:39:44;3.57;;;1.00;;
66093;SDS011;52876;49.394;10.892;2022-10-22T13:42:10;1.10;;;0.90;;
66093;SDS011;52876;49.394;10.892;2022-10-22T13:44:36;1.50;;;1.00;;
66093;SDS011;52876;49.394;10.892;2022-10-22T13:47:03;1.17;;;0.80;;
66093;SDS011;52876;49.394;10.892;2022-10-22T13:49:34;0.90;;;0.70;;
66093;SDS011;52876;49.394;10.892;2022-10-22T13:52:02;2.03;;;0.90;;
66093;SDS011;52876;49.394;10.892;2022-10-22T13:54:28;2.27;;;0.90;;
66093;SDS011;52876;49.394;10.892;2022-10-22T13:56:53;1.87;;;0.87;;
66093;SDS011;52876;49.394;10.892;2022-10-22T13:59:19;1.10;;;1.00;;
66093;SDS011;52876;49.394;10.892;2022-10-22T14:01:46;1.00;;;0.90;;
66093;SDS011;52876;49.394;10.892;2022-10-22T14:04:13;1.80;;;1.10;;
66093;SDS011;52876;49.394;10.892;2022-10-22T14:06:39;1.37;;;0.80;;
66093;SDS011;52876;49.394;10.892;2022-10-22T14:09:05;1.30;;;0.93;;
66093;SDS011;52876;49.394;10.892;2022-10-22T14:11:36;2.00;;;1.00;;
66093;SDS011;52876;49.394;10.892;2022-10-22T14:14:01;2.80;;;0.90;;
66093;SDS011;52876;49.394;10.892;2022-10-22T14:16:27;2.70;;;1.20;;
66093;SDS011;52876;49.394;10.892;2022-10-22T14:18:53;1.80;;;0.90;;
66093;SDS011;52876;49.394;10.892;2022-10-22T14:21:23;3.10;;;0.70;;
66093;SDS011;52876;49.394;10.892;2022-10-22T14:23:49;3.83;;;1.00;;
66093;SDS011;52876;49.394;10.892;2022-10-22T14:26:17;1.90;;;1.10;;
66093;SDS011;52876;49.394;10.892;2022-10-22T14:28:46;1.00;;;0.80;;
66093;SDS011;52876;49.394;10.892;2022-10-22T14:31:13;4.57;;;1.00;;
66093;SDS011;52876;49.394;10.892;2022-10-22T14:33:39;2.07;;;1.10;;
66093;SDS011;52876;49.394;10.892;2022-10-22T14:36:07;1.23;;;0.93;;
66093;SDS011;52876;49.394;10.892;2022-10-22T14:38:36;1.40;;;0.90;;
66093;SDS011;52876;49.394;10.892;2022-10-22T14:41:04;2.13;;;1.00;;
66093;SDS011;52876;49.394;10.892;2022-10-22T14:43:40;1.30;;;0.90;;
66093;SDS011;52876;49.394;10.892;2022-10-22T14:46:07;2.33;;;0.80;;
66093;SDS011;52876;49.394;10.892;2022-10-22T14:48:36;3.00;;;0.83;;
66093;SDS011;52876;49.394;10.892;2022-10-22T14:51:01;1.97;;;1.10;;
66093;SDS011;52876;49.394;10.892;2022-10-22T14:53:27;1.47;;;1.10;;
66093;SDS011;52876;49.394;10.892;2022-10-22T14:55:56;1.10;;;1.00;;